No particular awareness of the weather is required.    There are no Weather-warnings


Meteo18 Weather Cam more information Meteo18 Weather Cam


Thunder radar more information blitzortung!


Rain radar more information rain snow radar


Visit our other weather sites:

Template documentation
and downloads

And another site



Weather Underground History page Text

Daily Summary for December 3, 2017 Units:  English    Metric   Both
« Previous Day
Next Day »
Daily Weekly Monthly Yearly Custom
  High: Low: Average:
Temperature: TemperatureC °F -2.8 °F -1.1 °F
Dew Point: DewpointC °F -3.7 °F -2 °F
Humidity: Humidity % 91 % 93 %
Wind Speed: WindSpeedKMH mph 0.0 mph 4 mph
Wind Gust: WindSpeedGustKMH mph - -
Wind:- - SW
Pressure: PressurehPa in 1028.0 in -
Precipitation: 0.0 in    
Historical Graphs
 
 
Tabular Data for December 3, 2017
Time Temperature Dew Point Pressure Wind Wind Speed Wind Gust Humidity Rainfall Rate (Hourly)
TemperatureC °F DewpointC °F PressurehPa in Calm     Humidity % HourlyPrecipMM in
00:07 -1.0 °F -2.1 °F 1028.0 in North 17.7 mph 17.7 mph 92 % 0.0 in
00:12 -1.0 °F -2.1 °F 1028.0 in NNW 6.4 mph 17.7 mph 92 % 0.0 in
00:17 -1.0 °F -2.1 °F 1028.0 in NNW 9.7 mph 17.7 mph 92 % 0.0 in
00:32 -1.1 °F -2.2 °F 1028.3 in North 9.7 mph 19.3 mph 92 % 0.0 in
00:37 -1.1 °F -2.2 °F 1028.3 in NE 8.0 mph 19.3 mph 92 % 0.0 in
00:42 -1.2 °F -2.3 °F 1028.3 in North 12.9 mph 16.1 mph 92 % 0.0 in
00:47 -1.2 °F -2.3 °F 1028.3 in NNE 11.3 mph 16.1 mph 92 % 0.0 in
00:52 -1.2 °F -2.3 °F 1028.3 in NW 8.0 mph 16.1 mph 92 % 0.0 in
01:12 -1.3 °F -2.3 °F 1028.3 in NNW 8.0 mph 17.7 mph 93 % 0.0 in
01:22 -1.3 °F -2.3 °F 1028.3 in North 8.0 mph 19.3 mph 93 % 0.0 in
01:27 -1.3 °F -2.3 °F 1028.3 in North 4.8 mph 19.3 mph 93 % 0.0 in
01:32 -1.3 °F -2.3 °F 1028.3 in North 8.0 mph 16.1 mph 93 % 0.0 in
01:37 -1.3 °F -2.3 °F 1028.3 in NNW 3.2 mph 16.1 mph 93 % 0.0 in
01:52 -1.4 °F -2.4 °F 1028.3 in NNW 4.8 mph 11.3 mph 93 % 0.0 in
02:02 -1.4 °F -2.4 °F 1028.3 in NNE 3.2 mph 12.9 mph 93 % 0.0 in
02:12 -1.4 °F -2.4 °F 1028.3 in NNW 3.2 mph 12.9 mph 93 % 0.0 in
02:17 -1.4 °F -2.4 °F 1028.0 in North 3.2 mph 9.7 mph 93 % 0.0 in
02:22 -1.4 °F -2.4 °F 1028.0 in Calm   9.7 mph 93 % 0.0 in
02:27 -1.4 °F -2.4 °F 1028.0 in North 3.2 mph 9.7 mph 93 % 0.0 in
02:32 -1.4 °F -2.4 °F 1028.3 in NNW 1.6 mph 4.8 mph 93 % 0.0 in
02:37 -1.4 °F -2.5 °F 1028.0 in Calm   3.2 mph 92 % 0.0 in
02:52 -1.6 °F -2.7 °F 1028.3 in Calm   9.7 mph 92 % 0.0 in
02:57 -1.6 °F -2.7 °F 1028.3 in North 3.2 mph 9.7 mph 92 % 0.0 in
03:12 -1.6 °F -2.7 °F 1028.7 in NNW 3.2 mph 11.3 mph 92 % 0.0 in
03:17 -1.6 °F -2.7 °F 1028.3 in NW 1.6 mph 11.3 mph 92 % 0.0 in
03:22 -1.6 °F -2.7 °F 1028.7 in NNW 1.6 mph 11.3 mph 92 % 0.0 in
03:27 -1.6 °F -2.7 °F 1028.7 in NNE 3.2 mph 8.0 mph 92 % 0.0 in
03:32 -1.6 °F -2.7 °F 1028.3 in NNW 3.2 mph 6.4 mph 92 % 0.0 in
03:37 -1.7 °F -2.8 °F 1028.3 in NNW 3.2 mph 11.3 mph 92 % 0.0 in
03:42 -1.7 °F -2.8 °F 1028.3 in NNW 3.2 mph 11.3 mph 92 % 0.0 in
03:47 -1.7 °F -2.8 °F 1028.3 in NW 1.6 mph 11.3 mph 92 % 0.0 in
03:52 -1.8 °F -2.9 °F 1028.3 in NNW 1.6 mph 11.3 mph 92 % 0.0 in
03:57 -1.8 °F -2.9 °F 1028.3 in NNW 1.6 mph 11.3 mph 92 % 0.0 in
04:02 -1.8 °F -2.9 °F 1028.3 in NNW 1.6 mph 9.7 mph 92 % 0.0 in
04:07 -1.7 °F -2.8 °F 1028.7 in Calm   9.7 mph 92 % 0.0 in
04:12 -1.7 °F -2.8 °F 1028.7 in Calm   3.2 mph 92 % 0.0 in
04:17 -1.7 °F -2.8 °F 1028.7 in WNW 1.6 mph 3.2 mph 92 % 0.0 in
04:22 -1.8 °F -2.9 °F 1028.7 in Calm   8.0 mph 92 % 0.0 in
04:32 -1.9 °F -3.0 °F 1028.7 in WNW 8.0 mph 8.0 mph 92 % 0.0 in
04:42 -2.1 °F -3.2 °F 1028.3 in West 1.6 mph 8.0 mph 92 % 0.0 in
04:47 -2.1 °F -3.2 °F 1028.3 in West 1.6 mph 8.0 mph 92 % 0.0 in
04:52 -2.2 °F -3.2 °F 1028.3 in West 3.2 mph 6.4 mph 93 % 0.0 in
04:57 -2.2 °F -3.3 °F 1028.7 in Calm   8.0 mph 92 % 0.0 in
05:02 -2.2 °F -3.2 °F 1028.7 in WNW 1.6 mph 8.0 mph 93 % 0.0 in
05:12 -2.2 °F -3.2 °F 1028.7 in Calm   4.8 mph 93 % 0.0 in
05:17 -2.2 °F -3.2 °F 1028.3 in Calm   3.2 mph 93 % 0.0 in
05:22 -2.2 °F -3.2 °F 1028.7 in Calm     93 % 0.0 in
05:27 -2.2 °F -3.2 °F 1028.7 in Calm   1.6 mph 93 % 0.0 in
05:37 -2.2 °F -3.2 °F 1028.7 in Calm   4.8 mph 93 % 0.0 in
05:42 -2.2 °F -3.2 °F 1028.7 in Calm   4.8 mph 93 % 0.0 in
05:47 -2.2 °F -3.2 °F 1028.7 in Calm   4.8 mph 93 % 0.0 in
05:52 -2.2 °F -3.2 °F 1028.7 in WNW 3.2 mph 3.2 mph 93 % 0.0 in
06:07 -2.1 °F -3.1 °F 1029.0 in Calm   4.8 mph 93 % 0.0 in
06:12 -2.1 °F -3.1 °F 1028.7 in NW 1.6 mph 3.2 mph 93 % 0.0 in
06:17 -2.1 °F -3.1 °F 1028.7 in Calm   3.2 mph 93 % 0.0 in
06:27 -2.2 °F -3.2 °F 1028.7 in Calm   1.6 mph 93 % 0.0 in
06:32 -2.2 °F -3.2 °F 1029.0 in Calm   1.6 mph 93 % 0.0 in
06:42 -2.3 °F -3.3 °F 1029.0 in Calm   3.2 mph 93 % 0.0 in
07:02 -2.4 °F -3.4 °F 1029.0 in Calm   3.2 mph 93 % 0.0 in
07:17 -2.6 °F -3.6 °F 1029.0 in Calm   4.8 mph 93 % 0.0 in
07:22 -2.6 °F -3.6 °F 1029.0 in Calm   4.8 mph 93 % 0.0 in
07:32 -2.6 °F -3.6 °F 1029.3 in Calm   3.2 mph 93 % 0.0 in
07:42 -2.6 °F -3.6 °F 1029.3 in WSW 3.2 mph 4.8 mph 93 % 0.0 in
07:47 -2.6 °F -3.6 °F 1029.3 in Calm   4.8 mph 93 % 0.0 in
07:52 -2.6 °F -3.6 °F 1029.3 in Calm   4.8 mph 93 % 0.0 in
07:57 -2.6 °F -3.6 °F 1029.3 in Calm   4.8 mph 93 % 0.0 in
08:02 -2.6 °F -3.6 °F 1029.3 in Calm   3.2 mph 93 % 0.0 in
08:07 -2.6 °F -3.6 °F 1029.3 in Calm   3.2 mph 93 % 0.0 in
08:17 -2.6 °F -3.6 °F 1029.3 in Calm   3.2 mph 93 % 0.0 in
08:27 -2.6 °F -3.6 °F 1029.3 in South 1.6 mph 3.2 mph 93 % 0.0 in
08:42 -2.6 °F -3.4 °F 1029.7 in SSW 1.6 mph 8.0 mph 94 % 0.0 in
08:52 -2.6 °F -3.4 °F 1029.7 in Calm   6.4 mph 94 % 0.0 in
08:57 -2.6 °F -3.4 °F 1029.7 in Calm   6.4 mph 94 % 0.0 in
09:07 -2.6 °F -3.4 °F 1030.0 in Calm   1.6 mph 94 % 0.0 in
09:17 -2.4 °F -3.2 °F 1030.0 in West 4.8 mph 4.8 mph 94 % 0.0 in
09:22 -2.5 °F -3.3 °F 1030.0 in Calm   6.4 mph 94 % 0.0 in
09:32 -2.7 °F -3.5 °F 1030.0 in WNW 1.6 mph 8.0 mph 94 % 0.0 in
09:37 -2.7 °F -3.5 °F 1030.0 in West 1.6 mph 8.0 mph 94 % 0.0 in
09:42 -2.6 °F -3.4 °F 1030.0 in Calm   8.0 mph 94 % 0.0 in
09:47 -2.6 °F -3.4 °F 1030.0 in West 1.6 mph 8.0 mph 94 % 0.0 in
09:57 -2.7 °F -3.7 °F 1030.0 in SW 3.2 mph 12.9 mph 93 % 0.0 in
10:02 -2.8 °F -3.6 °F 1030.0 in West 4.8 mph 12.9 mph 94 % 0.0 in
10:07 -2.8 °F -3.6 °F 1030.4 in SW 1.6 mph 11.3 mph 94 % 0.0 in
10:12 -2.7 °F -3.5 °F 1030.4 in WSW 8.0 mph 12.9 mph 94 % 0.0 in
10:17 -2.7 °F -3.5 °F 1030.0 in SW 3.2 mph 12.9 mph 94 % 0.0 in
10:22 -2.5 °F -3.3 °F 1030.4 in SW 4.8 mph 12.9 mph 94 % 0.0 in
10:32 -2.6 °F -3.4 °F 1030.4 in SW 9.7 mph 12.9 mph 94 % 0.0 in
10:37 -2.6 °F -3.4 °F 1030.4 in WSW 3.2 mph 12.9 mph 94 % 0.0 in
10:42 -2.7 °F -3.5 °F 1030.4 in SW 8.0 mph 9.7 mph 94 % 0.0 in
10:52 -2.7 °F -3.5 °F 1030.4 in SSW 4.8 mph 11.3 mph 94 % 0.0 in
10:57 -2.6 °F -3.4 °F 1030.4 in SW 6.4 mph 11.3 mph 94 % 0.0 in
11:02 -2.6 °F -3.4 °F 1030.4 in SSW 6.4 mph 12.9 mph 94 % 0.0 in
11:07 -2.4 °F -3.2 °F 1030.4 in SW 1.6 mph 12.9 mph 94 % 0.0 in
11:12 -2.3 °F -3.1 °F 1030.4 in SSW 8.0 mph 11.3 mph 94 % 0.0 in
11:17 -2.2 °F -3.0 °F 1030.4 in WSW 1.6 mph 11.3 mph 94 % 0.0 in
11:27 -2.2 °F -3.2 °F 1030.4 in SW 3.2 mph 11.3 mph 93 % 0.0 in
11:32 -2.2 °F -3.2 °F 1030.4 in SSW 3.2 mph 12.9 mph 93 % 0.0 in
11:37 -2.2 °F -3.2 °F 1030.4 in Calm   12.9 mph 93 % 0.0 in
11:42 -2.1 °F -3.1 °F 1030.4 in WSW 9.7 mph 12.9 mph 93 % 0.0 in
11:47 -2.1 °F -3.1 °F 1030.4 in SW 4.8 mph 11.3 mph 93 % 0.0 in
11:52 -2.1 °F -3.1 °F 1030.4 in SW 8.0 mph 11.3 mph 93 % 0.0 in
11:57 -2.1 °F -3.1 °F 1030.4 in SW 3.2 mph 12.9 mph 93 % 0.0 in
12:02 -1.9 °F -2.9 °F 1030.4 in SW 4.8 mph 12.9 mph 93 % 0.0 in
12:12 -1.9 °F -3.0 °F 1030.4 in SW 6.4 mph 11.3 mph 92 % 0.0 in
12:17 -1.9 °F -3.0 °F 1030.4 in SSW 4.8 mph 11.3 mph 92 % 0.0 in
12:22 -1.8 °F -2.9 °F 1030.4 in SW 9.7 mph 11.3 mph 92 % 0.0 in
12:27 -1.7 °F -2.7 °F 1030.4 in SSW 6.4 mph 11.3 mph 93 % 0.0 in
12:32 -1.7 °F -2.8 °F 1030.0 in SSW 6.4 mph 11.3 mph 92 % 0.0 in
12:42 -1.6 °F -2.7 °F 1030.0 in SSW 4.8 mph 12.9 mph 92 % 0.0 in
12:47 -1.6 °F -2.7 °F 1030.0 in SSW 4.8 mph 11.3 mph 92 % 0.0 in
12:52 -1.6 °F -2.7 °F 1030.0 in South 6.4 mph 9.7 mph 92 % 0.0 in
12:57 -1.6 °F -2.7 °F 1030.0 in SSW 9.7 mph 12.9 mph 92 % 0.0 in
13:02 -1.6 °F -2.7 °F 1030.0 in SSW 8.0 mph 12.9 mph 92 % 0.0 in
13:07 -1.6 °F -2.7 °F 1029.7 in SW 6.4 mph 12.9 mph 92 % 0.0 in
13:17 -1.5 °F -2.6 °F 1029.7 in SW 9.7 mph 11.3 mph 92 % 0.0 in
13:22 -1.4 °F -2.4 °F 1029.7 in South 4.8 mph 11.3 mph 93 % 0.0 in
13:27 -1.4 °F -2.5 °F 1029.7 in SSW 4.8 mph 11.3 mph 92 % 0.0 in
13:32 -1.5 °F -2.6 °F 1029.7 in SW 3.2 mph 12.9 mph 92 % 0.0 in
13:42 -1.4 °F -2.5 °F 1029.3 in SW 4.8 mph 12.9 mph 92 % 0.0 in
13:47 -1.4 °F -2.5 °F 1029.3 in SW 9.7 mph 14.5 mph 92 % 0.0 in
13:52 -1.3 °F -2.4 °F 1029.3 in SW 8.0 mph 14.5 mph 92 % 0.0 in
14:02 -1.3 °F -2.4 °F 1029.7 in SW 11.3 mph 12.9 mph 92 % 0.0 in
14:12 -1.2 °F -2.3 °F 1029.7 in SSW 8.0 mph 11.3 mph 92 % 0.0 in
14:17 -1.1 °F -2.2 °F 1029.7 in WSW 6.4 mph 11.3 mph 92 % 0.0 in
14:22 -1.0 °F -2.1 °F 1029.3 in SSW 11.3 mph 11.3 mph 92 % 0.0 in
14:32 -1.0 °F -2.1 °F 1029.7 in SW 4.8 mph 14.5 mph 92 % 0.0 in
14:37 -0.9 °F -2.0 °F 1029.7 in SW 11.3 mph 14.5 mph 92 % 0.0 in
14:42 -1.0 °F -2.3 °F 1029.7 in SW 6.4 mph 12.9 mph 91 % 0.0 in
14:47 -1.0 °F -2.3 °F 1029.7 in SW 8.0 mph 12.9 mph 91 % 0.0 in
14:52 -0.9 °F -2.2 °F 1029.3 in SW 12.9 mph 12.9 mph 91 % 0.0 in
14:57 -0.8 °F -2.1 °F 1029.3 in SW 9.7 mph 12.9 mph 91 % 0.0 in
15:07 -0.8 °F -2.1 °F 1029.3 in SW 6.4 mph 14.5 mph 91 % 0.0 in
15:12 -0.8 °F -2.1 °F 1029.3 in SW 12.9 mph 14.5 mph 91 % 0.0 in
15:17 -0.7 °F -2.0 °F 1029.3 in SW 11.3 mph 14.5 mph 91 % 0.0 in
15:22 -0.7 °F -2.0 °F 1029.7 in SW 6.4 mph 16.1 mph 91 % 0.0 in
15:32 -0.7 °F -1.8 °F 1029.7 in SW 12.9 mph 16.1 mph 92 % 0.0 in
15:37 -0.7 °F -1.8 °F 1029.7 in SW 6.4 mph 16.1 mph 92 % 0.0 in
15:42 -0.7 °F -1.8 °F 1029.7 in SW 8.0 mph 14.5 mph 92 % 0.0 in
15:47 -0.7 °F -1.8 °F 1029.7 in SW 6.4 mph 14.5 mph 92 % 0.0 in
15:52 -0.6 °F -1.7 °F 1029.7 in SW 6.4 mph 14.5 mph 92 % 0.0 in
15:57 -0.6 °F -1.7 °F 1029.7 in SW 6.4 mph 11.3 mph 92 % 0.0 in
16:02 -0.6 °F -1.7 °F 1029.7 in SW 3.2 mph 11.3 mph 92 % 0.0 in
16:12 -0.5 °F -1.6 °F 1029.7 in SW 8.0 mph 11.3 mph 92 % 0.0 in
16:17 -0.6 °F -1.7 °F 1029.7 in SSW 9.7 mph 11.3 mph 92 % 0.0 in
16:22 -0.5 °F -1.6 °F 1029.3 in SSW 6.4 mph 11.3 mph 92 % 0.0 in
16:27 -0.4 °F -1.5 °F 1029.3 in SW 9.7 mph 12.9 mph 92 % 0.0 in
16:32 -0.4 °F -1.5 °F 1029.3 in SW 11.3 mph 12.9 mph 92 % 0.0 in
16:37 -0.4 °F -1.5 °F 1029.3 in SW 8.0 mph 12.9 mph 92 % 0.0 in
16:42 -0.4 °F -1.5 °F 1029.3 in SW 8.0 mph 14.5 mph 92 % 0.0 in
16:47 -0.4 °F -1.5 °F 1029.3 in WSW 8.0 mph 14.5 mph 92 % 0.0 in
16:52 -0.4 °F -1.4 °F 1029.7 in SSW 3.2 mph 14.5 mph 93 % 0.0 in
16:57 -0.3 °F -1.3 °F 1029.7 in SW 3.2 mph 12.9 mph 93 % 0.0 in
17:02 -0.4 °F -1.4 °F 1029.7 in SW 8.0 mph 12.9 mph 93 % 0.0 in
17:12 -0.3 °F -1.3 °F 1029.7 in SW 4.8 mph 12.9 mph 93 % 0.0 in
17:17 -0.3 °F -1.3 °F 1029.7 in WSW 9.7 mph 12.9 mph 93 % 0.0 in
17:22 -0.3 °F -1.3 °F 1029.7 in SW 8.0 mph 12.9 mph 93 % 0.0 in
17:27 -0.3 °F -1.4 °F 1029.7 in SW 4.8 mph 12.9 mph 92 % 0.0 in
17:32 -0.2 °F -1.2 °F 1029.7 in SSW 8.0 mph 12.9 mph 93 % 0.0 in
17:37 -0.2 °F -1.2 °F 1029.7 in SSW 3.2 mph 12.9 mph 93 % 0.0 in
17:42 -0.2 °F -1.2 °F 1029.7 in SW 6.4 mph 9.7 mph 93 % 0.0 in
17:52 -0.2 °F -1.2 °F 1030.0 in SW 3.2 mph 8.0 mph 93 % 0.0 in
17:57 -0.2 °F -1.2 °F 1030.0 in WSW 8.0 mph 8.0 mph 93 % 0.0 in
18:02 -0.2 °F -1.2 °F 1030.0 in SSW 3.2 mph 8.0 mph 93 % 0.0 in
18:12 -0.2 °F -1.0 °F 1030.0 in SW 6.4 mph 8.0 mph 94 % 0.0 in
18:17 -0.2 °F -1.0 °F 1030.0 in SSW 3.2 mph 8.0 mph 94 % 0.0 in
18:22 -0.2 °F -1.0 °F 1030.0 in SSW 1.6 mph 8.0 mph 94 % 0.0 in
18:32 -0.2 °F -0.9 °F 1030.0 in SSW 1.6 mph 6.4 mph 95 % 0.0 in
18:42 -0.2 °F -0.9 °F 1030.4 in SW 3.2 mph 6.4 mph 95 % 0.0 in
18:47 -0.2 °F -0.9 °F 1030.4 in SSW 1.6 mph 6.4 mph 95 % 0.0 in
18:52 -0.2 °F -0.9 °F 1030.4 in SW 3.2 mph 6.4 mph 95 % 0.0 in
19:02 -0.2 °F -0.8 °F 1030.4 in SSW 3.2 mph 6.4 mph 96 % 0.0 in
19:07 -0.2 °F -0.8 °F 1030.4 in SW 4.8 mph 8.0 mph 96 % 0.0 in
19:12 -0.1 °F -0.7 °F 1030.4 in SW 1.6 mph 8.0 mph 96 % 0.0 in
19:17 -0.1 °F -0.7 °F 1030.4 in SW 1.6 mph 8.0 mph 96 % 0.0 in
19:22 -0.1 °F -0.7 °F 1030.4 in SW 4.8 mph 8.0 mph 96 % 0.0 in
19:27 -0.1 °F -0.7 °F 1030.4 in South 4.8 mph 9.7 mph 96 % 0.0 in
19:32 -0.1 °F -0.7 °F 1030.4 in SW 4.8 mph 9.7 mph 96 % 0.0 in
19:42 -0.1 °F -0.7 °F 1030.4 in SSW 3.2 mph 8.0 mph 96 % 0.0 in
19:47 0.0 °F -0.6 °F 1030.4 in SW 3.2 mph 8.0 mph 96 % 0.0 in
19:57 0.1 °F -0.5 °F 1030.4 in SSW 4.8 mph 8.0 mph 96 % 0.0 in
20:02 0.1 °F -0.5 °F 1030.4 in SW 1.6 mph 8.0 mph 96 % 0.0 in
20:07 0.1 °F -0.5 °F 1030.4 in SW 4.8 mph 6.4 mph 96 % 0.0 in
20:12 0.1 °F -0.5 °F 1030.4 in SW 4.8 mph 6.4 mph 96 % 0.0 in
20:17 0.2 °F -0.4 °F 1030.7 in SSW 1.6 mph 6.4 mph 96 % 0.0 in
20:22 0.2 °F -0.4 °F 1030.7 in SSW 1.6 mph 6.4 mph 96 % 0.0 in
20:27 0.2 °F -0.4 °F 1030.4 in SSW 1.6 mph 6.4 mph 96 % 0.0 in
20:32 0.2 °F -0.4 °F 1030.4 in SW 3.2 mph 4.8 mph 96 % 0.0 in
20:37 0.2 °F -0.4 °F 1030.4 in South 3.2 mph 4.8 mph 96 % 0.0 in
20:42 0.2 °F -0.2 °F 1030.4 in SW 6.4 mph 9.7 mph 97 % 0.0 in
20:47 0.3 °F -0.1 °F 1030.4 in SSW 3.2 mph 11.3 mph 97 % 0.0 in
20:57 0.3 °F -0.1 °F 1030.4 in Calm   11.3 mph 97 % 0.0 in
21:02 0.3 °F -0.1 °F 1030.4 in SW 1.6 mph 9.7 mph 97 % 0.0 in
21:07 0.3 °F -0.1 °F 1030.4 in SSE 3.2 mph 9.7 mph 97 % 0.0 in
21:17 0.4 °F 0.0 °F 1030.4 in SW 1.6 mph 6.4 mph 97 % 0.0 in
21:22 0.4 °F 0.0 °F 1030.4 in WSW 3.2 mph 6.4 mph 97 % 0.0 in
21:27 0.4 °F 0.0 °F 1030.4 in SSW 1.6 mph 6.4 mph 97 % 0.0 in
21:32 0.4 °F 0.0 °F 1030.7 in SW 3.2 mph 6.4 mph 97 % 0.0 in
21:37 0.4 °F 0.0 °F 1030.7 in SSW 3.2 mph 6.4 mph 97 % 0.0 in
21:47 0.5 °F 0.1 °F 1030.7 in SW 3.2 mph 9.7 mph 97 % 0.0 in
21:52 0.5 °F 0.1 °F 1030.7 in SW 4.8 mph 9.7 mph 97 % 0.0 in
21:57 0.6 °F 0.2 °F 1030.7 in SW 3.2 mph 9.7 mph 97 % 0.0 in
22:02 0.6 °F 0.2 °F 1030.7 in SW 3.2 mph 8.0 mph 97 % 0.0 in
22:07 0.6 °F 0.2 °F 1030.7 in SW 1.6 mph 8.0 mph 97 % 0.0 in
22:12 0.6 °F 0.2 °F 1030.7 in SW 3.2 mph 6.4 mph 97 % 0.0 in
22:17 0.6 °F 0.2 °F 1030.7 in Calm   6.4 mph 97 % 0.0 in
22:22 0.7 °F 0.3 °F 1030.7 in Calm   6.4 mph 97 % 0.0 in
22:27 0.7 °F 0.3 °F 1030.7 in SW 1.6 mph 4.8 mph 97 % 0.0 in
22:32 0.7 °F 0.3 °F 1031.0 in WSW 1.6 mph 3.2 mph 97 % 0.0 in
22:37 0.7 °F 0.3 °F 1031.0 in Calm   3.2 mph 97 % 0.0 in
22:42 0.8 °F 0.4 °F 1031.0 in Calm   4.8 mph 97 % 0.0 in
22:47 0.8 °F 0.4 °F 1031.0 in WNW 6.4 mph 6.4 mph 97 % 0.0 in
22:52 0.9 °F 0.5 °F 1031.0 in SW 1.6 mph 8.0 mph 97 % 0.0 in
22:57 0.9 °F 0.5 °F 1031.0 in South 1.6 mph 8.0 mph 97 % 0.0 in
23:02 0.9 °F 0.5 °F 1031.0 in South 1.6 mph 8.0 mph 97 % 0.0 in
23:12 1.0 °F 0.6 °F 1031.0 in Calm   4.8 mph 97 % 0.0 in
23:17 1.0 °F 0.6 °F 1031.4 in SW 1.6 mph 4.8 mph 97 % 0.0 in
23:22 1.1 °F 0.7 °F 1031.4 in SW 1.6 mph 4.8 mph 97 % 0.0 in
23:32 1.1 °F 0.7 °F 1031.4 in SW 1.6 mph 4.8 mph 97 % 0.0 in
23:37 1.1 °F 0.7 °F 1031.4 in SW 1.6 mph 4.8 mph 97 % 0.0 in
23:42 1.2 °F 0.8 °F 1031.4 in WSW 4.8 mph 8.0 mph 97 % 0.0 in
23:47 1.2 °F 0.8 °F 1031.4 in Calm   8.0 mph 97 % 0.0 in
23:52 1.2 °F 0.8 °F 1031.4 in Calm   8.0 mph 97 % 0.0 in
23:57 1.3 °F 0.9 °F 1031.4 in Calm   8.0 mph 97 % 0.0 in
Meteo18
Compliments of Weather Underground - 4 mb

Script developed by  Jim McMurry - jmcmurry@mwt.net Adapted for the template by  Wim van der Kuil - Leuven-Template.eu

You find our weather info also at:

European Weather Network

Weather Underground

Equipment we use:

Weather-station
Davis Vue

Weather-program
Meteobridge

Weather-server
Raspberry PI 2 B+

Provider
1 and 1

Davis Vue

Meteobridge

Raspberry PI 2 B+

1 and 1